createdAt,value
2023-07-19T00:00:41.300Z,6.70
2023-07-19T00:03:11.270Z,6.10
2023-07-19T00:05:42.124Z,5.97
2023-07-19T00:08:10.312Z,6.20
2023-07-19T00:10:38.460Z,6.35
2023-07-19T00:13:06.948Z,6.07
2023-07-19T00:15:35.179Z,6.18
2023-07-19T00:18:03.577Z,7.40
2023-07-19T00:20:33.101Z,6.97
2023-07-19T00:23:01.244Z,6.95
2023-07-19T00:25:29.892Z,6.30
2023-07-19T00:27:58.008Z,5.85
2023-07-19T00:30:26.404Z,6.70
2023-07-19T00:32:54.587Z,7.17
2023-07-19T00:35:24.081Z,6.43
2023-07-19T00:37:53.722Z,7.13
2023-07-19T00:40:22.592Z,6.20
2023-07-19T00:42:50.818Z,5.90
2023-07-19T00:45:19.267Z,5.28
2023-07-19T00:47:47.869Z,4.63
2023-07-19T00:50:17.232Z,5.10
2023-07-19T00:52:45.377Z,4.60
2023-07-19T00:55:15.070Z,4.50
2023-07-19T00:57:43.959Z,4.72
2023-07-19T01:00:14.392Z,5.03
2023-07-19T01:02:44.191Z,4.72
2023-07-19T01:05:12.521Z,5.35
2023-07-19T01:07:41.924Z,5.75
2023-07-19T01:10:11.566Z,4.60
2023-07-19T01:12:41.276Z,4.80
2023-07-19T01:15:10.929Z,4.78
2023-07-19T01:17:39.666Z,4.90
2023-07-19T01:20:09.811Z,4.60
2023-07-19T01:22:39.379Z,4.93
2023-07-19T01:25:08.363Z,4.85
2023-07-19T01:27:36.815Z,5.37
2023-07-19T01:30:05.666Z,4.70
2023-07-19T01:32:35.108Z,4.63
2023-07-19T01:35:03.333Z,4.90
2023-07-19T01:37:31.894Z,4.65
2023-07-19T01:40:03.316Z,4.80
2023-07-19T01:42:31.632Z,4.93
2023-07-19T01:45:00.629Z,4.97
2023-07-19T01:47:28.954Z,4.82
2023-07-19T01:49:59.687Z,4.57
2023-07-19T01:52:27.858Z,5.40
2023-07-19T01:54:56.099Z,6.17
2023-07-19T01:57:26.759Z,4.93
2023-07-19T01:59:55.172Z,5.40
2023-07-19T02:02:23.963Z,5.30
2023-07-19T02:04:52.580Z,5.30
2023-07-19T02:07:21.446Z,5.53
2023-07-19T02:09:49.436Z,5.33
2023-07-19T02:12:17.457Z,5.60
2023-07-19T02:14:47.036Z,5.00
2023-07-19T02:17:15.704Z,5.43
2023-07-19T02:19:43.838Z,5.57
2023-07-19T02:22:12.144Z,5.20
2023-07-19T02:24:40.557Z,5.93
2023-07-19T02:27:08.906Z,5.80
2023-07-19T02:29:39.226Z,5.80
2023-07-19T02:32:09.764Z,5.10
2023-07-19T02:34:38.194Z,5.60
2023-07-19T02:37:07.507Z,6.00
2023-07-19T02:39:35.757Z,5.77
2023-07-19T02:42:03.980Z,5.50
2023-07-19T02:44:32.272Z,5.83
2023-07-19T02:47:00.412Z,5.60
2023-07-19T02:49:30.377Z,5.77
2023-07-19T02:51:58.857Z,4.80
2023-07-19T02:54:27.095Z,5.20
2023-07-19T02:56:55.085Z,5.70
2023-07-19T02:59:23.138Z,5.40
2023-07-19T03:01:51.615Z,5.50
2023-07-19T03:04:19.681Z,6.07
2023-07-19T03:06:50.180Z,5.57
2023-07-19T03:09:18.217Z,5.27
2023-07-19T03:11:46.293Z,5.87
2023-07-19T03:14:14.317Z,5.13
2023-07-19T03:16:43.148Z,5.47
2023-07-19T03:19:14.032Z,5.40
2023-07-19T03:21:42.523Z,5.67
2023-07-19T03:24:13.484Z,5.70
2023-07-19T03:26:41.975Z,5.63
2023-07-19T03:29:10.016Z,5.73
2023-07-19T03:31:38.720Z,5.67
2023-07-19T03:34:07.632Z,6.40
2023-07-19T03:36:35.967Z,6.60
2023-07-19T03:39:04.780Z,7.17
2023-07-19T03:41:34.830Z,7.93
2023-07-19T03:44:03.589Z,7.93
2023-07-19T03:46:31.783Z,6.77
2023-07-19T03:49:00.956Z,7.33
2023-07-19T03:51:29.197Z,6.83
2023-07-19T03:53:57.277Z,6.73
2023-07-19T03:56:25.481Z,7.20
2023-07-19T03:58:55.137Z,6.40
2023-07-19T04:01:24.163Z,6.33
2023-07-19T04:03:52.392Z,6.53
2023-07-19T04:06:20.549Z,6.70
2023-07-19T04:08:48.708Z,6.33
2023-07-19T04:11:16.808Z,6.07
2023-07-19T04:13:44.875Z,6.13
2023-07-19T04:16:14.786Z,6.17
2023-07-19T04:18:42.953Z,7.07
2023-07-19T04:21:11.391Z,6.80
2023-07-19T04:23:39.568Z,7.37
2023-07-19T04:26:07.746Z,6.10
2023-07-19T04:28:36.123Z,7.60
2023-07-19T04:31:04.189Z,6.97
2023-07-19T04:33:34.025Z,7.65
2023-07-19T04:36:02.337Z,6.93
2023-07-19T04:38:30.318Z,6.55
2023-07-19T04:41:04.286Z,6.70
2023-07-19T04:43:32.797Z,6.43
2023-07-19T04:46:01.107Z,6.15
2023-07-19T04:48:31.407Z,6.88
2023-07-19T04:51:01.513Z,6.63
2023-07-19T04:53:29.545Z,7.30
2023-07-19T04:55:58.206Z,7.57
2023-07-19T04:58:28.238Z,8.05
2023-07-19T05:00:56.235Z,8.98
2023-07-19T05:03:24.280Z,7.88
2023-07-19T05:05:52.808Z,8.15
2023-07-19T05:08:22.597Z,8.63
2023-07-19T05:10:50.925Z,7.90
2023-07-19T05:13:20.061Z,7.82
2023-07-19T05:15:48.177Z,7.82
2023-07-19T05:18:16.285Z,7.80
2023-07-19T05:20:44.329Z,7.28
2023-07-19T05:23:13.490Z,7.38
2023-07-19T05:25:43.479Z,6.72
2023-07-19T05:28:11.973Z,7.00
2023-07-19T05:30:40.048Z,7.05
2023-07-19T05:33:08.258Z,7.88
2023-07-19T05:35:37.211Z,7.05
2023-07-19T05:38:06.446Z,6.25
2023-07-19T05:40:34.869Z,6.43
2023-07-19T05:43:04.664Z,7.25
2023-07-19T05:45:33.584Z,7.90
2023-07-19T05:48:02.071Z,7.72
2023-07-19T05:50:32.250Z,7.10
2023-07-19T05:53:00.510Z,7.05
2023-07-19T05:55:28.719Z,6.63
2023-07-19T05:57:57.931Z,6.70
2023-07-19T06:00:29.948Z,6.97
2023-07-19T06:02:58.747Z,7.93
2023-07-19T06:05:27.395Z,6.97
2023-07-19T06:07:57.833Z,6.82
2023-07-19T06:10:31.937Z,7.05
2023-07-19T06:13:00.146Z,6.25
2023-07-19T06:15:29.665Z,7.00
2023-07-19T06:17:57.978Z,7.18
2023-07-19T06:20:26.469Z,6.68
2023-07-19T06:22:57.118Z,7.13
2023-07-19T06:25:25.519Z,5.90
2023-07-19T06:27:53.765Z,6.43
2023-07-19T06:30:21.888Z,5.88
2023-07-19T06:32:52.007Z,6.75
2023-07-19T06:35:20.305Z,7.00
2023-07-19T06:37:48.526Z,6.60
2023-07-19T06:40:16.768Z,7.00
2023-07-19T06:42:45.219Z,6.68
2023-07-19T06:45:13.283Z,6.82
2023-07-19T06:47:41.495Z,6.55
2023-07-19T06:50:11.629Z,7.20
2023-07-19T06:52:41.344Z,6.45
2023-07-19T06:55:11.288Z,7.00
2023-07-19T06:57:39.474Z,7.55
2023-07-19T07:00:09.353Z,6.60
2023-07-19T07:02:38.567Z,7.05
2023-07-19T07:05:07.641Z,7.05
2023-07-19T07:07:38.221Z,7.13
2023-07-19T07:10:10.335Z,6.82
2023-07-19T07:12:38.708Z,7.13
2023-07-19T07:15:08.029Z,7.03
2023-07-19T07:17:36.211Z,6.60
2023-07-19T07:20:04.630Z,6.68
2023-07-19T07:22:33.529Z,6.93
2023-07-19T07:25:03.473Z,7.20
2023-07-19T07:27:31.959Z,7.07
2023-07-19T07:30:01.135Z,6.95
2023-07-19T07:32:29.517Z,7.43
2023-07-19T07:34:57.743Z,6.88
2023-07-19T07:37:26.082Z,6.78
2023-07-19T07:39:54.441Z,6.68
2023-07-19T07:42:25.677Z,7.28
2023-07-19T07:44:54.076Z,7.47
2023-07-19T07:47:22.466Z,6.50
2023-07-19T07:49:50.721Z,6.95
2023-07-19T07:52:19.163Z,7.05
2023-07-19T07:54:47.341Z,7.13
2023-07-19T07:57:15.628Z,7.55
2023-07-19T07:59:45.043Z,7.20
2023-07-19T08:02:13.189Z,6.88
2023-07-19T08:04:41.563Z,7.80
2023-07-19T08:07:09.658Z,7.63
2023-07-19T08:09:37.893Z,7.18
2023-07-19T08:12:07.230Z,6.75
2023-07-19T08:14:35.122Z,6.75
2023-07-19T08:17:05.207Z,6.30
2023-07-19T08:19:33.625Z,6.63
2023-07-19T08:22:05.663Z,6.75
2023-07-19T08:24:34.971Z,6.40
2023-07-19T08:27:03.303Z,7.13
2023-07-19T08:29:31.514Z,6.88
2023-07-19T08:31:59.553Z,7.05
2023-07-19T08:34:29.128Z,6.57
2023-07-19T08:36:57.718Z,5.95
2023-07-19T08:39:28.535Z,6.70
2023-07-19T08:41:56.842Z,6.30
2023-07-19T08:44:27.218Z,7.60
2023-07-19T08:46:56.047Z,7.50
2023-07-19T08:49:25.081Z,6.95
2023-07-19T08:51:55.537Z,6.32
2023-07-19T08:54:23.789Z,6.88
2023-07-19T08:56:52.187Z,6.47
2023-07-19T08:59:20.428Z,6.57
2023-07-19T09:01:48.427Z,6.60
2023-07-19T09:04:17.006Z,7.82
2023-07-19T09:06:49.080Z,6.70
2023-07-19T09:09:19.306Z,6.45
2023-07-19T09:11:51.560Z,6.63
2023-07-19T09:14:19.963Z,6.82
2023-07-19T09:16:53.341Z,7.95
2023-07-19T09:19:22.846Z,7.60
2023-07-19T09:21:52.758Z,7.72
2023-07-19T09:24:22.565Z,12.50
2023-07-19T09:26:52.171Z,6.97
2023-07-19T09:29:20.660Z,6.47
2023-07-19T09:31:55.054Z,7.57
2023-07-19T09:34:25.228Z,6.55
2023-07-19T09:36:54.995Z,5.95
2023-07-19T09:39:24.841Z,6.68
2023-07-19T09:42:02.759Z,6.72
2023-07-19T09:44:31.420Z,7.63
2023-07-19T09:47:01.264Z,7.78
2023-07-19T09:49:29.568Z,7.40
2023-07-19T09:51:58.386Z,7.38
2023-07-19T09:54:33.648Z,7.95
2023-07-19T09:57:03.542Z,7.78
2023-07-19T09:59:36.833Z,7.07
2023-07-19T10:02:06.901Z,6.50
2023-07-19T10:04:39.185Z,7.15
2023-07-19T10:07:11.530Z,6.97
2023-07-19T10:09:44.282Z,6.63
2023-07-19T10:12:29.599Z,6.93
2023-07-19T10:15:01.460Z,7.05
2023-07-19T10:17:32.086Z,6.15
2023-07-19T10:20:08.497Z,6.75
2023-07-19T10:22:57.188Z,7.28
2023-07-19T10:25:29.353Z,6.30
2023-07-19T10:27:59.236Z,7.03
2023-07-19T10:30:53.095Z,6.97
2023-07-19T10:33:26.463Z,6.65
2023-07-19T10:35:56.534Z,6.95
2023-07-19T10:38:25.959Z,7.00
2023-07-19T10:41:00.041Z,7.38
2023-07-19T10:43:44.926Z,7.43
2023-07-19T10:46:15.315Z,6.70
2023-07-19T10:48:44.656Z,6.55
2023-07-19T10:51:12.745Z,6.90
2023-07-19T10:53:45.552Z,6.75
2023-07-19T10:56:15.887Z,6.07
2023-07-19T10:58:44.073Z,5.75
2023-07-19T11:01:14.779Z,6.68
2023-07-19T11:03:47.705Z,6.18
2023-07-19T11:06:16.618Z,5.85
2023-07-19T11:08:45.701Z,6.80
2023-07-19T11:11:17.211Z,6.60
2023-07-19T11:13:47.269Z,6.30
2023-07-19T11:16:16.194Z,6.55
2023-07-19T11:18:44.378Z,6.07
2023-07-19T11:21:12.899Z,6.30
2023-07-19T11:23:43.553Z,6.18
2023-07-19T11:26:13.262Z,5.38
2023-07-19T11:28:48.262Z,5.85
2023-07-19T11:31:34.005Z,6.40
2023-07-19T11:34:03.604Z,5.80
2023-07-19T11:36:33.294Z,5.15
2023-07-19T11:39:01.915Z,5.25
2023-07-19T11:41:32.875Z,5.43
2023-07-19T11:44:02.729Z,5.40
2023-07-19T11:46:31.020Z,5.95
2023-07-19T11:48:59.463Z,5.53
2023-07-19T11:51:29.586Z,5.95
2023-07-19T11:53:57.898Z,5.40
2023-07-19T11:56:29.163Z,4.60
2023-07-19T11:58:58.028Z,5.15
2023-07-19T12:01:28.273Z,6.32
2023-07-19T12:04:01.556Z,5.13
2023-07-19T12:06:30.683Z,5.80
2023-07-19T12:09:00.407Z,4.93
2023-07-19T12:11:28.631Z,4.55
2023-07-19T12:13:58.713Z,5.00
2023-07-19T12:16:28.733Z,5.18
2023-07-19T12:18:56.887Z,4.75
2023-07-19T12:21:25.627Z,4.95
2023-07-19T12:28:56.677Z,4.63
2023-07-19T12:31:25.217Z,4.90
2023-07-19T12:33:54.832Z,4.70
2023-07-19T12:36:23.550Z,5.18
2023-07-19T12:38:51.861Z,4.65
2023-07-19T12:41:25.343Z,4.70
2023-07-19T12:43:53.558Z,4.30
2023-07-19T12:46:23.381Z,5.63
2023-07-19T12:48:52.369Z,4.78
2023-07-19T12:51:24.014Z,4.57
2023-07-19T12:53:52.187Z,5.18
2023-07-19T12:56:21.370Z,5.05
2023-07-19T12:58:50.282Z,4.63
2023-07-19T13:01:18.852Z,5.10
2023-07-19T13:03:47.104Z,4.97
2023-07-19T13:06:15.756Z,5.00
2023-07-19T13:08:46.020Z,4.85
2023-07-19T13:11:14.573Z,4.95
2023-07-19T13:13:42.839Z,5.10
2023-07-19T13:16:11.294Z,4.60
2023-07-19T13:18:40.227Z,4.38
2023-07-19T13:21:08.722Z,4.78
2023-07-19T13:23:36.838Z,4.78
2023-07-19T13:26:06.404Z,4.82
2023-07-19T13:28:34.812Z,3.92
2023-07-19T13:31:03.113Z,4.50
2023-07-19T13:33:31.397Z,5.43
2023-07-19T13:36:00.140Z,4.40
2023-07-19T13:38:28.995Z,4.13
2023-07-19T13:40:57.430Z,4.28
2023-07-19T13:43:27.749Z,3.70
2023-07-19T13:45:56.035Z,5.07
2023-07-19T13:48:24.231Z,4.65
2023-07-19T13:50:53.004Z,4.75
2023-07-19T13:53:22.434Z,5.00
2023-07-19T13:55:50.571Z,6.43
2023-07-19T13:58:18.827Z,7.45
2023-07-19T14:00:48.325Z,5.63
2023-07-19T14:03:17.703Z,5.15
2023-07-19T14:05:46.112Z,5.18
2023-07-19T14:08:15.541Z,5.13
2023-07-19T14:10:43.652Z,4.85
2023-07-19T14:16:04.780Z,5.38
2023-07-19T14:18:34.954Z,5.30
2023-07-19T14:21:10.217Z,5.95
2023-07-19T14:23:38.910Z,5.45
2023-07-19T14:26:07.541Z,6.72
2023-07-19T14:28:35.760Z,5.25
2023-07-19T14:31:05.802Z,5.35
2023-07-19T14:33:34.027Z,5.03
2023-07-19T14:36:04.550Z,5.50
2023-07-19T14:38:33.562Z,5.45
2023-07-19T14:41:02.862Z,4.88
2023-07-19T14:43:31.089Z,4.97
2023-07-19T14:45:59.704Z,5.60
2023-07-19T14:48:29.701Z,4.70
2023-07-19T14:50:58.662Z,4.90
2023-07-19T14:53:26.766Z,5.53
2023-07-19T14:55:56.514Z,5.28
2023-07-19T14:58:24.738Z,4.78
2023-07-19T15:00:53.499Z,5.38
2023-07-19T15:05:54.126Z,5.78
2023-07-19T15:08:22.881Z,5.88
2023-07-19T15:10:51.120Z,5.90
2023-07-19T15:13:21.204Z,5.53
2023-07-19T15:15:55.576Z,5.13
2023-07-19T15:18:24.137Z,6.05
2023-07-19T15:20:53.702Z,6.40
2023-07-19T15:23:23.290Z,5.38
2023-07-19T15:25:52.339Z,5.80
2023-07-19T15:28:29.497Z,5.45
2023-07-19T15:30:59.727Z,4.90
2023-07-19T15:33:28.610Z,5.18
2023-07-19T15:36:00.500Z,5.28
2023-07-19T15:38:39.918Z,5.40
2023-07-19T15:41:08.796Z,5.15
2023-07-19T15:43:38.105Z,6.10
2023-07-19T15:46:09.367Z,5.45
2023-07-19T15:48:38.295Z,5.78
2023-07-19T15:51:12.042Z,5.57
2023-07-19T15:53:40.665Z,5.55
2023-07-19T15:56:10.050Z,5.72
2023-07-19T15:58:38.898Z,5.82
2023-07-19T16:01:08.077Z,6.18
2023-07-19T16:03:37.239Z,5.68
2023-07-19T16:06:08.035Z,5.40
2023-07-19T16:08:39.368Z,5.35
2023-07-19T16:11:07.862Z,5.72
2023-07-19T16:13:36.624Z,5.75
2023-07-19T16:16:05.795Z,5.85
2023-07-19T16:18:35.146Z,4.90
2023-07-19T16:21:03.866Z,5.90
2023-07-19T16:23:32.306Z,6.07
2023-07-19T16:26:01.869Z,5.97
2023-07-19T16:28:30.195Z,5.72
2023-07-19T16:31:00.112Z,5.40
2023-07-19T16:33:28.210Z,6.20
2023-07-19T16:35:56.763Z,5.60
2023-07-19T16:38:25.481Z,5.72
2023-07-19T16:40:53.573Z,6.22
2023-07-19T16:43:25.837Z,5.50
2023-07-19T16:45:54.687Z,5.72
2023-07-19T16:48:23.744Z,5.85
2023-07-19T16:50:52.367Z,5.95
2023-07-19T16:53:21.737Z,5.57
2023-07-19T16:55:50.371Z,5.88
2023-07-19T16:58:18.464Z,5.75
2023-07-19T17:00:48.558Z,5.40
2023-07-19T17:03:18.883Z,6.75
2023-07-19T17:05:46.940Z,5.65
2023-07-19T17:08:15.593Z,5.75
2023-07-19T17:10:43.722Z,5.53
2023-07-19T17:13:11.945Z,5.97
2023-07-19T17:15:40.072Z,5.82
2023-07-19T17:18:10.374Z,6.20
2023-07-19T17:20:39.045Z,5.45
2023-07-19T17:23:08.215Z,5.32
2023-07-19T17:25:37.050Z,5.13
2023-07-19T17:28:05.370Z,5.63
2023-07-19T17:30:34.694Z,5.28
2023-07-19T17:33:03.136Z,6.25
2023-07-19T17:35:32.853Z,5.90
2023-07-19T17:38:01.333Z,5.50
2023-07-19T17:40:29.813Z,6.38
2023-07-19T17:42:58.241Z,6.53
2023-07-19T17:45:26.461Z,5.28
2023-07-19T17:47:54.589Z,5.45
2023-07-19T17:50:23.047Z,5.88
2023-07-19T17:52:53.003Z,5.70
2023-07-19T17:55:21.408Z,5.65
2023-07-19T17:57:51.428Z,5.97
2023-07-19T18:00:20.344Z,6.47
2023-07-19T18:02:48.430Z,6.43
2023-07-19T18:05:16.803Z,7.07
2023-07-19T18:07:46.311Z,6.70
2023-07-19T18:10:15.805Z,8.13
2023-07-19T18:12:44.202Z,9.00
2023-07-19T18:15:12.529Z,8.50
2023-07-19T18:17:40.684Z,7.63
2023-07-19T18:20:10.155Z,7.55
2023-07-19T18:22:40.528Z,7.05
2023-07-19T18:25:09.618Z,8.10
2023-07-19T18:27:39.197Z,7.82
2023-07-19T18:30:08.875Z,7.40
2023-07-19T18:32:37.434Z,7.85
2023-07-19T18:35:06.481Z,7.93
2023-07-19T18:37:34.516Z,7.60
2023-07-19T18:40:03.281Z,7.32
2023-07-19T18:42:31.309Z,7.25
2023-07-19T18:45:01.347Z,6.45
2023-07-19T18:47:29.313Z,7.72
2023-07-19T18:49:58.476Z,6.78
2023-07-19T18:52:26.633Z,6.15
2023-07-19T18:54:54.982Z,6.95
2023-07-19T18:57:23.588Z,6.57
2023-07-19T18:59:51.617Z,7.07
2023-07-19T19:02:21.449Z,6.47
2023-07-19T19:04:50.066Z,7.10
2023-07-19T19:07:17.976Z,6.85
2023-07-19T19:09:46.603Z,6.68
2023-07-19T19:12:15.545Z,7.03
2023-07-19T19:14:47.121Z,6.70
2023-07-19T19:17:17.271Z,7.20
2023-07-19T19:19:46.772Z,6.40
2023-07-19T19:22:16.239Z,6.53
2023-07-19T19:24:46.367Z,7.07
2023-07-19T19:27:14.503Z,7.15
2023-07-19T19:29:44.415Z,7.00
2023-07-19T19:32:14.018Z,7.18
2023-07-19T19:34:42.125Z,7.43
2023-07-19T19:37:13.551Z,7.22
2023-07-19T19:39:41.628Z,7.47
2023-07-19T19:42:10.544Z,7.95
2023-07-19T19:44:39.029Z,6.55
2023-07-19T19:47:08.469Z,7.13
2023-07-19T19:49:38.128Z,6.95
2023-07-19T19:52:07.253Z,7.00
2023-07-19T19:54:37.394Z,7.20
2023-07-19T19:57:08.516Z,7.20
2023-07-19T19:59:37.062Z,6.22
2023-07-19T20:04:37.300Z,6.57
2023-07-19T20:07:06.583Z,6.57
2023-07-19T20:09:41.053Z,7.03
2023-07-19T20:12:17.132Z,6.90
2023-07-19T20:14:45.036Z,6.70
2023-07-19T20:17:13.093Z,6.43
2023-07-19T20:19:41.249Z,6.93
2023-07-19T20:22:11.883Z,6.43
2023-07-19T20:24:48.002Z,7.05
2023-07-19T20:27:23.887Z,7.10
2023-07-19T20:35:01.291Z,6.90
2023-07-19T20:37:32.745Z,6.45
2023-07-19T20:40:05.022Z,6.55
2023-07-19T20:45:13.485Z,6.38
2023-07-19T20:50:11.109Z,6.63
2023-07-19T20:52:39.477Z,6.72
2023-07-19T20:55:09.220Z,6.50
2023-07-19T20:57:38.800Z,6.45
2023-07-19T21:00:08.232Z,6.82
2023-07-19T21:02:36.367Z,6.45
2023-07-19T21:05:05.229Z,6.32
2023-07-19T21:07:33.333Z,7.20
2023-07-19T21:10:03.785Z,6.57
2023-07-19T21:12:32.244Z,6.57
2023-07-19T21:15:01.766Z,6.32
2023-07-19T21:17:30.238Z,6.72
2023-07-19T21:19:58.660Z,6.72
2023-07-19T21:22:26.782Z,6.47
2023-07-19T21:27:26.779Z,6.25
2023-07-19T21:29:55.181Z,6.47
2023-07-19T21:32:27.272Z,6.28
2023-07-19T21:34:55.711Z,7.03
2023-07-19T21:37:23.848Z,6.05
2023-07-19T21:39:53.507Z,6.47
2023-07-19T21:42:22.140Z,7.25
2023-07-19T21:44:50.871Z,6.88
2023-07-19T21:47:19.565Z,6.82
2023-07-19T21:49:49.360Z,6.72
2023-07-19T21:52:17.345Z,8.25
2023-07-19T21:54:46.679Z,10.25
2023-07-19T21:57:14.917Z,9.23
2023-07-19T21:59:43.040Z,6.65
2023-07-19T22:02:11.041Z,7.57
2023-07-19T22:04:39.670Z,5.03
2023-07-19T22:07:10.381Z,3.50
2023-07-19T22:09:42.145Z,3.28
2023-07-19T22:12:11.344Z,3.72
2023-07-19T22:14:43.524Z,3.20
2023-07-19T22:17:14.187Z,2.83
2023-07-19T22:19:42.374Z,2.30
2023-07-19T22:22:11.684Z,2.38
2023-07-19T22:24:39.815Z,1.83
2023-07-19T22:27:08.481Z,2.03
2023-07-19T22:29:36.711Z,2.00
2023-07-19T22:32:05.190Z,1.75
2023-07-19T22:34:34.700Z,1.60
2023-07-19T22:37:03.891Z,1.50
2023-07-19T22:39:33.374Z,1.60
2023-07-19T22:42:01.580Z,1.50
2023-07-19T22:44:29.692Z,1.52
2023-07-19T22:46:58.221Z,1.90
2023-07-19T22:49:26.641Z,1.77
2023-07-19T22:51:55.156Z,1.40
2023-07-19T22:54:27.172Z,1.42
2023-07-19T22:56:56.666Z,1.23
2023-07-19T22:59:25.203Z,1.58
2023-07-19T23:01:55.380Z,2.08
2023-07-19T23:04:24.070Z,1.70
2023-07-19T23:06:53.205Z,1.52
2023-07-19T23:09:21.666Z,1.67
2023-07-19T23:11:49.799Z,2.53
2023-07-19T23:14:19.439Z,2.03
2023-07-19T23:16:47.976Z,1.98
2023-07-19T23:19:15.943Z,2.28
2023-07-19T23:21:44.021Z,2.00
2023-07-19T23:24:12.670Z,2.20
2023-07-19T23:26:40.772Z,2.00
2023-07-19T23:29:09.519Z,2.17
2023-07-19T23:31:42.446Z,2.10
2023-07-19T23:34:11.912Z,2.55
2023-07-19T23:36:40.257Z,3.17
2023-07-19T23:39:08.285Z,2.15
2023-07-19T23:41:36.291Z,2.20
2023-07-19T23:44:05.047Z,2.25
2023-07-19T23:46:33.706Z,3.13
2023-07-19T23:49:03.361Z,3.30
2023-07-19T23:51:33.075Z,2.55
2023-07-19T23:54:02.224Z,2.58
2023-07-19T23:56:30.311Z,2.17
2023-07-19T23:58:58.534Z,2.10
